Terminal Aerodrome Forecast
Issued by NWS

Home | Current Version | Previous Version | Text Only | Print | Product List | Glossary On
Versions: 1 2 3 4 5 6 7 8 9 10 11 12 13 14 15 16 17 18 19 20 21 22
000
FTUS43 KGRR 040500
TAFLAN
TAF
KLAN 040540Z 0406/0506 28011G20KT P6SM OVC025
      TEMPO 0406/0409 BKN015
     FM040900 27010KT P6SM OVC025
     FM041500 29010KT P6SM VCSH OVC035=

USA.gov is the U.S. government's official web portal to all federal, state and local government web resources and services.